Time;durP1;ratioP1;P1;durP2;ratioP2;P2;SDS_P1;SDS_P2;PMS_P1;PMS_P2;Temp;Humidity;BMP_temperature;BMP_pressure;BME280_temperature;BME280_humidity;BME280_pressure;Samples;Min_cycle;Max_cycle;Signal;HPM_P1;HPM_P2
2023/01/05 00:01:29;;;;;;;12.25;9.45;;;8.50;99.90;;;;;;6074657;23;20500;-67
2023/01/05 00:03:55;;;;;;;11.40;9.23;;;8.50;99.90;;;;;;6080868;23;20424;-67
2023/01/05 00:06:20;;;;;;;11.30;9.30;;;8.50;99.90;;;;;;6078252;23;20073;-67
2023/01/05 00:08:46;;;;;;;11.43;9.30;;;8.50;99.90;;;;;;6079941;23;20002;-67
2023/01/05 00:22:32;;;;;;;13.13;9.95;;;8.50;99.90;;;;;;6079547;23;20675;-67
2023/01/05 00:25:10;;;;;;;14.45;9.75;;;8.50;99.90;;;;;;6080475;23;20101;-68
2023/01/05 00:27:36;;;;;;;12.85;9.88;;;8.50;99.90;;;;;;6081129;23;20022;-68
2023/01/05 00:30:04;;;;;;;11.77;9.73;;;8.50;99.90;;;;;;6080104;23;20105;-67
2023/01/05 00:32:29;;;;;;;14.65;11.25;;;8.50;99.90;;;;;;6078973;23;20037;-68
2023/01/05 00:34:56;;;;;;;10.95;9.13;;;8.50;99.90;;;;;;6081583;23;20002;-67
2023/01/05 00:37:24;;;;;;;12.18;9.80;;;8.50;99.90;;;;;;6085988;23;20007;-68
2023/01/05 00:39:50;;;;;;;12.90;10.85;;;8.50;99.90;;;;;;6080636;23;20002;-68
2023/01/05 00:42:16;;;;;;;13.18;10.38;;;8.50;99.90;;;;;;6082957;23;20010;-67
2023/01/05 00:44:41;;;;;;;12.52;10.35;;;8.40;99.90;;;;;;6080956;23;20006;-67
2023/01/05 00:47:07;;;;;;;14.93;11.23;;;8.40;99.90;;;;;;6082371;23;20033;-67
2023/01/05 00:49:33;;;;;;;13.75;11.20;;;8.40;99.90;;;;;;6079494;23;20011;-67
2023/01/05 00:51:59;;;;;;;12.07;10.68;;;8.40;99.90;;;;;;6079305;23;20053;-67
2023/01/05 00:54:25;;;;;;;15.85;11.95;;;8.30;99.90;;;;;;6078191;23;20436;-67
2023/01/05 00:56:50;;;;;;;11.18;9.95;;;8.30;99.90;;;;;;6076342;23;20085;-67
2023/01/05 00:59:16;;;;;;;12.70;9.98;;;8.30;99.90;;;;;;6080084;23;20662;-69
2023/01/05 01:01:46;;;;;;;10.30;9.23;;;8.30;99.90;;;;;;6080366;23;20356;-69
2023/01/05 01:04:13;;;;;;;10.45;9.25;;;8.40;99.90;;;;;;6079000;23;20014;-69
2023/01/05 01:06:39;;;;;;;12.18;9.10;;;8.40;99.90;;;;;;6076692;23;20045;-66
2023/01/05 01:09:04;;;;;;;11.95;9.40;;;8.40;99.90;;;;;;6075535;23;20007;-67
2023/01/05 01:11:30;;;;;;;12.73;9.50;;;8.40;99.90;;;;;;6076794;23;20098;-67
2023/01/05 01:13:56;;;;;;;10.35;9.07;;;8.40;99.90;;;;;;6079453;23;20009;-67
2023/01/05 01:16:22;;;;;;;9.38;8.35;;;8.40;99.90;;;;;;6076136;23;20014;-68
2023/01/05 01:18:48;;;;;;;10.27;8.32;;;8.50;99.90;;;;;;6079507;23;20093;-67
2023/01/05 01:21:13;;;;;;;10.88;9.02;;;8.40;99.90;;;;;;6081356;23;20766;-68
2023/01/05 01:23:39;;;;;;;11.93;9.15;;;8.50;99.90;;;;;;6082662;23;20060;-67
2023/01/05 01:26:09;;;;;;;10.75;8.95;;;8.50;99.90;;;;;;6078512;23;20018;-67
2023/01/05 01:28:35;;;;;;;12.65;9.65;;;8.50;99.90;;;;;;6079262;23;20006;-67
2023/01/05 01:31:01;;;;;;;8.80;7.38;;;8.40;99.90;;;;;;6079070;23;20014;-67
2023/01/05 01:33:28;;;;;;;9.98;7.57;;;8.50;99.90;;;;;;6080909;23;20010;-68
2023/01/05 01:35:54;;;;;;;12.07;8.70;;;8.50;99.90;;;;;;6080924;23;20015;-68
2023/01/05 01:38:20;;;;;;;8.48;6.90;;;8.50;99.90;;;;;;6081029;23;20013;-68
2023/01/05 01:40:46;;;;;;;7.72;6.38;;;8.50;99.90;;;;;;6079962;23;20070;-68
2023/01/05 01:43:18;;;;;;;8.77;7.25;;;8.50;99.90;;;;;;6078225;23;20017;-68
2023/01/05 01:45:44;;;;;;;7.78;6.85;;;8.50;99.90;;;;;;6081007;23;20074;-69
2023/01/05 01:48:13;;;;;;;8.80;7.35;;;8.50;99.90;;;;;;6077422;23;20006;-69
2023/01/05 01:50:53;;;;;;;8.80;7.05;;;8.50;99.90;;;;;;6081538;23;20066;-69
2023/01/05 01:53:41;;;;;;;9.80;7.97;;;8.50;99.90;;;;;;6079656;23;20006;-69
2023/01/05 01:56:12;;;;;;;10.13;8.02;;;8.50;99.90;;;;;;6081198;23;20002;-69
2023/01/05 01:58:38;;;;;;;10.68;8.02;;;8.40;99.90;;;;;;6078547;23;20503;-69
2023/01/05 02:01:04;;;;;;;10.55;8.30;;;8.30;99.90;;;;;;6081098;23;20133;-69
2023/01/05 02:03:30;;;;;;;9.60;7.72;;;8.30;99.90;;;;;;6076293;23;20089;-71
2023/01/05 02:05:57;;;;;;;10.90;8.50;;;8.30;99.90;;;;;;6079571;23;20181;-71
2023/01/05 02:08:30;;;;;;;8.75;7.55;;;8.30;99.90;;;;;;6081093;23;20017;-70
2023/01/05 02:11:04;;;;;;;11.57;7.93;;;8.30;99.90;;;;;;6078301;23;20765;-70
2023/01/05 02:14:03;;;;;;;9.02;6.90;;;8.40;99.90;;;;;;6079830;23;20006;-70
2023/01/05 02:16:50;;;;;;;9.68;7.28;;;8.40;99.90;;;;;;6081710;23;20017;-70
2023/01/05 02:19:34;;;;;;;9.23;6.97;;;8.40;99.90;;;;;;6077302;23;20041;-71
2023/01/05 02:22:17;;;;;;;8.18;6.90;;;8.40;99.90;;;;;;6077659;23;20014;-71
2023/01/05 02:25:10;;;;;;;6.90;6.03;;;8.30;99.90;;;;;;6079862;23;20041;-70
2023/01/05 02:27:58;;;;;;;6.80;5.60;;;8.30;99.90;;;;;;6082798;23;20022;-71
2023/01/05 02:30:45;;;;;;;7.93;6.15;;;8.30;99.90;;;;;;6080849;23;20017;-71
2023/01/05 02:33:20;;;;;;;7.28;5.03;;;8.30;99.90;;;;;;6079146;23;20121;-69
2023/01/05 02:35:56;;;;;;;5.38;4.70;;;8.20;99.90;;;;;;6081665;23;20041;-70
2023/01/05 02:38:31;;;;;;;6.45;5.10;;;8.20;99.90;;;;;;6081945;23;20034;-71
2023/01/05 02:41:01;;;;;;;6.38;4.68;;;8.20;99.90;;;;;;6080441;23;20022;-67
2023/01/05 02:43:28;;;;;;;6.88;5.13;;;8.20;99.90;;;;;;6081408;23;20002;-70
2023/01/05 02:45:54;;;;;;;6.22;4.85;;;8.30;99.90;;;;;;6081770;23;20077;-70
2023/01/05 02:48:20;;;;;;;5.47;4.65;;;8.30;99.90;;;;;;6082921;23;20089;-69
2023/01/05 02:51:05;;;;;;;4.60;4.07;;;8.30;99.90;;;;;;6079248;23;20479;-70
2023/01/05 02:53:36;;;;;;;6.05;5.25;;;8.30;99.90;;;;;;6081005;23;20006;-68
2023/01/05 02:56:36;;;;;;;7.13;5.20;;;8.20;99.90;;;;;;6081581;23;20065;-69
2023/01/05 02:59:17;;;;;;;5.65;4.82;;;8.30;99.90;;;;;;6079967;23;20003;-69
2023/01/05 03:01:57;;;;;;;6.97;5.55;;;8.30;99.90;;;;;;6082102;23;20461;-69
2023/01/05 03:04:54;;;;;;;7.07;5.30;;;8.30;99.90;;;;;;6085586;23;20029;-68
2023/01/05 03:07:27;;;;;;;7.63;5.68;;;8.30;99.90;;;;;;6045837;23;20010;-69
2023/01/05 03:09:52;;;;;;;5.38;4.82;;;8.30;99.90;;;;;;6080213;23;20002;-69
2023/01/05 03:15:06;;;;;;;3.15;2.45;;;8.30;99.90;;;;;;6078930;23;20085;-69
2023/01/05 03:17:45;;;;;;;3.00;2.70;;;8.50;99.90;;;;;;6080418;23;20354;-69
2023/01/05 03:20:17;;;;;;;3.42;2.50;;;8.50;99.90;;;;;;6079085;23;20435;-69
2023/01/05 03:37:44;;;;;;;1.10;1.00;;;8.90;99.90;;;;;;6079926;23;20021;-69
2023/01/05 03:40:20;;;;;;;1.30;1.20;;;9.00;99.90;;;;;;6079780;23;20045;-68
2023/01/05 03:42:46;;;;;;;1.20;1.00;;;9.10;99.90;;;;;;6076134;23;20436;-69
2023/01/05 03:45:14;;;;;;;1.15;0.80;;;9.30;99.90;;;;;;6077154;23;20003;-68
2023/01/05 03:47:40;;;;;;;1.05;0.95;;;9.40;99.90;;;;;;6076170;23;20072;-69
2023/01/05 03:50:06;;;;;;;1.13;0.85;;;9.60;99.90;;;;;;6077211;23;20014;-68
2023/01/05 03:52:32;;;;;;;1.58;0.65;;;9.80;99.90;;;;;;6074864;23;20003;-69
2023/01/05 03:54:58;;;;;;;0.98;0.70;;;10.10;99.90;;;;;;6078657;23;20002;-69
2023/01/05 03:57:23;;;;;;;1.17;0.90;;;10.10;99.90;;;;;;6077345;23;20042;-69
2023/01/05 03:59:49;;;;;;;0.73;0.73;;;10.30;99.90;;;;;;6080557;23;20003;-69
2023/01/05 04:02:14;;;;;;;1.30;0.82;;;10.40;99.90;;;;;;6082184;23;20011;-68
2023/01/05 04:04:40;;;;;;;0.50;0.50;;;10.40;99.90;;;;;;6081580;23;20738;-69
2023/01/05 04:07:06;;;;;;;0.85;0.60;;;10.50;99.90;;;;;;6083574;23;20010;-69
2023/01/05 04:09:32;;;;;;;0.68;0.52;;;10.60;99.90;;;;;;6082363;23;20338;-68
2023/01/05 04:11:59;;;;;;;0.82;0.60;;;10.80;99.90;;;;;;6081223;23;20013;-69
2023/01/05 04:14:24;;;;;;;1.08;0.98;;;10.90;99.90;;;;;;6079371;23;20073;-68
2023/01/05 04:16:50;;;;;;;1.67;1.05;;;10.90;99.90;;;;;;6084269;23;20601;-68
2023/01/05 04:19:16;;;;;;;2.08;0.82;;;10.80;99.90;;;;;;6079634;23;20006;-68
2023/01/05 04:21:41;;;;;;;1.00;0.75;;;10.90;99.90;;;;;;6076800;23;20782;-70
2023/01/05 04:24:09;;;;;;;0.80;0.70;;;10.90;99.90;;;;;;6076136;23;20514;-68
2023/01/05 04:26:36;;;;;;;0.77;0.77;;;10.90;99.90;;;;;;6078140;23;20097;-70
2023/01/05 04:29:02;;;;;;;1.58;0.90;;;11.00;99.90;;;;;;6079132;23;20005;-70
2023/01/05 04:31:28;;;;;;;0.70;0.68;;;11.00;99.90;;;;;;6077977;23;20010;-70
2023/01/05 04:33:54;;;;;;;0.75;0.75;;;11.00;99.90;;;;;;6079190;23;20082;-70
2023/01/05 04:36:19;;;;;;;0.90;0.80;;;11.00;99.90;;;;;;6081647;23;20006;-70
2023/01/05 04:38:45;;;;;;;1.02;0.88;;;11.00;99.90;;;;;;6077660;23;20506;-68
2023/01/05 04:41:11;;;;;;;1.05;0.80;;;11.00;99.90;;;;;;6079560;23;20073;-69
2023/01/05 04:43:36;;;;;;;1.25;1.15;;;10.90;99.90;;;;;;6081020;23;20025;-68
2023/01/05 04:46:02;;;;;;;1.27;1.17;;;10.80;99.90;;;;;;6076603;23;20475;-68
2023/01/05 04:48:27;;;;;;;1.45;1.27;;;10.70;99.90;;;;;;6080275;23;20030;-68
2023/01/05 04:50:54;;;;;;;1.98;1.75;;;10.70;99.90;;;;;;6082394;23;20388;-69
2023/01/05 04:53:21;;;;;;;1.73;0.80;;;10.70;99.90;;;;;;6081492;23;20642;-68
2023/01/05 04:55:47;;;;;;;1.13;0.70;;;10.60;99.90;;;;;;6081291;23;20002;-69
2023/01/05 04:58:12;;;;;;;3.10;0.70;;;10.70;99.90;;;;;;6081444;23;20364;-73
2023/01/05 05:00:38;;;;;;;0.90;0.80;;;10.90;99.90;;;;;;6079230;23;20093;-68
2023/01/05 05:03:04;;;;;;;0.73;0.63;;;10.90;99.90;;;;;;6080612;23;20639;-75
2023/01/05 05:05:29;;;;;;;0.82;0.50;;;10.90;99.90;;;;;;6079559;23;20056;-71
2023/01/05 05:07:55;;;;;;;1.15;0.60;;;10.90;99.90;;;;;;6083191;23;20625;-75
2023/01/05 05:10:21;;;;;;;0.70;0.60;;;10.90;99.90;;;;;;6084640;23;20770;-72
2023/01/05 05:12:46;;;;;;;1.52;0.55;;;10.90;99.90;;;;;;6082293;23;20003;-69
2023/01/05 05:15:12;;;;;;;0.88;0.32;;;11.00;99.90;;;;;;6083722;23;20013;-72
2023/01/05 05:17:38;;;;;;;0.75;0.75;;;11.00;99.90;;;;;;6088217;23;20006;-67
2023/01/05 05:20:04;;;;;;;0.60;0.55;;;11.20;99.90;;;;;;6085230;23;20011;-70
2023/01/05 05:22:30;;;;;;;0.90;0.60;;;11.20;99.90;;;;;;6081796;23;20018;-78
2023/01/05 05:24:56;;;;;;;0.43;0.43;;;11.20;99.90;;;;;;6084002;23;20081;-73
2023/01/05 05:27:22;;;;;;;0.80;0.50;;;11.20;99.90;;;;;;6082187;23;20094;-69
2023/01/05 05:29:47;;;;;;;0.45;0.35;;;11.20;99.90;;;;;;6082383;23;20491;-68
2023/01/05 05:32:13;;;;;;;0.50;0.40;;;11.30;99.90;;;;;;6083765;23;20862;-74
2023/01/05 05:34:39;;;;;;;0.50;0.40;;;11.30;99.90;;;;;;6081077;23;20500;-69
2023/01/05 05:37:04;;;;;;;0.75;0.40;;;11.30;99.90;;;;;;6081080;23;20002;-81
2023/01/05 05:39:30;;;;;;;0.65;0.30;;;11.40;99.90;;;;;;6082255;23;20034;-75
2023/01/05 05:41:56;;;;;;;0.40;0.35;;;11.50;99.90;;;;;;6080801;23;20065;-76
2023/01/05 05:44:21;;;;;;;1.90;0.47;;;11.60;99.90;;;;;;6081328;23;20002;-75
2023/01/05 05:46:47;;;;;;;1.08;0.50;;;11.60;99.90;;;;;;6081271;23;20006;-78
2023/01/05 05:49:13;;;;;;;0.90;0.40;;;11.60;99.90;;;;;;6082187;23;20014;-69
2023/01/05 05:51:39;;;;;;;0.40;0.30;;;11.60;99.90;;;;;;6080889;23;20261;-70
2023/01/05 05:54:04;;;;;;;3.03;0.40;;;11.70;99.90;;;;;;6078692;23;19999;-70
2023/01/05 05:56:30;;;;;;;0.38;0.30;;;11.60;99.90;;;;;;6076684;23;20013;-72
2023/01/05 05:58:56;;;;;;;2.25;0.57;;;11.70;99.90;;;;;;6075481;23;20412;-73
2023/01/05 06:01:22;;;;;;;2.50;0.10;;;11.70;99.90;;;;;;6080210;23;20514;-65
2023/01/05 06:03:47;;;;;;;1.05;0.30;;;11.70;99.90;;;;;;6084182;23;20037;-71
2023/01/05 06:06:13;;;;;;;0.50;0.35;;;11.80;99.90;;;;;;6084849;23;20011;-75
2023/01/05 06:08:39;;;;;;;0.47;0.20;;;11.80;99.90;;;;;;6087580;23;20428;-65
2023/01/05 06:11:04;;;;;;;1.98;0.30;;;11.70;99.90;;;;;;6081818;23;20017;-70
2023/01/05 06:13:30;;;;;;;0.63;0.20;;;11.80;99.90;;;;;;6084424;23;20006;-74
2023/01/05 06:15:56;;;;;;;0.43;0.20;;;11.80;99.90;;;;;;6085705;23;20016;-70
2023/01/05 06:18:21;;;;;;;0.47;0.30;;;11.80;99.90;;;;;;6085046;23;20419;-66
2023/01/05 06:20:47;;;;;;;0.80;0.25;;;11.70;99.90;;;;;;6086195;23;20014;-70
2023/01/05 06:23:13;;;;;;;1.10;0.35;;;11.70;99.90;;;;;;6087433;23;20081;-75
2023/01/05 06:25:39;;;;;;;0.85;0.40;;;11.60;99.90;;;;;;6085086;23;20039;-76
2023/01/05 06:28:05;;;;;;;1.63;0.40;;;11.60;99.90;;;;;;6085723;23;20037;-69
2023/01/05 06:30:31;;;;;;;0.57;0.40;;;11.70;99.90;;;;;;6086476;23;20420;-71
2023/01/05 06:32:56;;;;;;;0.52;0.20;;;11.70;99.90;;;;;;6086546;23;20081;-66
2023/01/05 06:35:22;;;;;;;0.55;0.50;;;11.70;99.90;;;;;;6086773;23;20010;-67
2023/01/05 06:37:48;;;;;;;0.60;0.30;;;11.60;99.90;;;;;;6086449;23;20056;-77
2023/01/05 06:40:14;;;;;;;0.52;0.25;;;11.70;99.90;;;;;;6086030;23;20429;-77
2023/01/05 06:42:40;;;;;;;0.75;0.25;;;11.70;99.90;;;;;;6082020;23;20034;-77
2023/01/05 06:45:07;;;;;;;0.68;0.68;;;11.80;99.90;;;;;;6081579;23;20007;-71
2023/01/05 06:47:33;;;;;;;0.30;0.30;;;11.80;99.90;;;;;;6084594;23;20006;-76
2023/01/05 06:49:58;;;;;;;0.43;0.35;;;11.80;99.90;;;;;;6078026;23;20380;-74
2023/01/05 06:52:24;;;;;;;0.45;0.40;;;11.70;99.90;;;;;;6079679;23;20002;-75
2023/01/05 06:54:50;;;;;;;0.43;0.30;;;11.70;99.90;;;;;;6079896;23;20135;-75
2023/01/05 06:57:15;;;;;;;1.15;0.30;;;11.70;99.90;;;;;;6080745;23;20088;-76
2023/01/05 06:59:41;;;;;;;0.35;0.30;;;11.80;99.90;;;;;;6081771;23;20038;-81
2023/01/05 07:02:15;;;;;;;0.30;0.30;;;11.80;99.90;;;;;;6084570;23;20019;-69
2023/01/05 07:04:41;;;;;;;0.52;0.38;;;11.80;99.90;;;;;;6080590;23;20689;-62
2023/01/05 07:07:08;;;;;;;1.75;0.93;;;11.90;99.90;;;;;;6081196;23;20017;-71
2023/01/05 07:09:34;;;;;;;0.68;0.43;;;11.90;99.90;;;;;;6082129;23;20153;-71
2023/01/05 07:11:59;;;;;;;0.45;0.45;;;11.90;99.90;;;;;;6080433;23;20157;-70
2023/01/05 07:14:25;;;;;;;0.30;0.30;;;12.00;99.90;;;;;;6081997;23;20318;-70
2023/01/05 07:16:51;;;;;;;0.43;0.30;;;12.00;99.90;;;;;;6080591;23;20003;-72
2023/01/05 07:19:16;;;;;;;0.30;0.20;;;12.00;99.90;;;;;;6080315;23;20946;-71
2023/01/05 07:21:42;;;;;;;0.57;0.15;;;12.10;99.90;;;;;;6080218;23;20084;-80
2023/01/05 07:24:08;;;;;;;0.85;0.30;;;12.10;99.90;;;;;;6080103;23;20010;-82
2023/01/05 07:26:34;;;;;;;0.17;0.17;;;12.20;99.90;;;;;;6080007;23;20022;-78
2023/01/05 07:28:59;;;;;;;0.77;0.30;;;12.20;99.90;;;;;;6083980;23;20009;-82
2023/01/05 07:31:25;;;;;;;0.93;0.47;;;12.20;99.90;;;;;;6083611;23;20090;-69
2023/01/05 07:33:51;;;;;;;0.65;0.45;;;12.10;99.90;;;;;;6081382;23;20081;-69
2023/01/05 07:36:16;;;;;;;0.40;0.40;;;12.00;99.90;;;;;;6085551;23;20327;-69
2023/01/05 07:38:42;;;;;;;0.45;0.30;;;12.00;99.90;;;;;;6082688;23;20002;-73
2023/01/05 07:41:07;;;;;;;0.25;0.25;;;11.90;99.90;;;;;;6080716;23;20014;-70
2023/01/05 07:43:34;;;;;;;0.95;0.40;;;11.70;99.90;;;;;;6080380;23;20460;-75
2023/01/05 07:46:02;;;;;;;0.20;0.20;;;11.60;99.90;;;;;;6082913;23;20110;-71
2023/01/05 07:48:28;;;;;;;0.43;0.40;;;11.60;99.90;;;;;;6081325;23;20058;-73
2023/01/05 07:51:03;;;;;;;0.63;0.30;;;11.60;99.90;;;;;;6078417;23;20014;-73
2023/01/05 07:53:30;;;;;;;0.60;0.40;;;11.60;99.90;;;;;;6081884;23;20007;-69
2023/01/05 07:56:00;;;;;;;0.32;0.30;;;11.60;99.90;;;;;;6079983;23;20093;-70
2023/01/05 07:58:27;;;;;;;0.35;0.35;;;11.80;99.90;;;;;;6078786;23;20006;-69
2023/01/05 08:00:53;;;;;;;3.85;0.30;;;11.90;99.90;;;;;;6079735;23;20007;-70
2023/01/05 08:03:19;;;;;;;1.00;0.68;;;12.00;99.90;;;;;;6080542;23;20011;-73
2023/01/05 08:05:45;;;;;;;0.20;0.20;;;12.10;99.90;;;;;;6079628;23;20029;-70
2023/01/05 08:08:11;;;;;;;0.20;0.20;;;12.10;99.90;;;;;;6080240;23;20006;-69
2023/01/05 08:10:39;;;;;;;0.30;0.20;;;12.20;99.90;;;;;;6077829;23;20003;-71
2023/01/05 08:15:53;;;;;;;0.28;0.28;;;12.30;99.90;;;;;;6080013;23;20086;-73
2023/01/05 08:18:19;;;;;;;0.40;0.30;;;12.30;99.90;;;;;;6079542;23;20723;-74
2023/01/05 08:20:54;;;;;;;1.95;0.30;;;12.30;99.90;;;;;;6078476;23;20014;-72
2023/01/05 08:23:20;;;;;;;0.20;0.20;;;12.30;99.90;;;;;;6081776;23;20010;-70
2023/01/05 08:25:45;;;;;;;0.82;0.20;;;12.30;99.90;;;;;;6077143;23;19995;-70
2023/01/05 08:28:11;;;;;;;0.50;0.30;;;12.40;99.90;;;;;;6079291;23;20068;-71
2023/01/05 08:30:37;;;;;;;0.40;0.40;;;12.30;99.90;;;;;;6081647;23;20017;-69
2023/01/05 08:33:04;;;;;;;0.25;0.25;;;12.40;99.90;;;;;;6078980;23;20009;-70
2023/01/05 08:35:29;;;;;;;2.45;0.98;;;12.40;99.90;;;;;;6082585;23;20002;-73
2023/01/05 08:37:55;;;;;;;0.80;0.30;;;12.40;99.90;;;;;;6079467;23;20018;-70
2023/01/05 08:40:21;;;;;;;0.70;0.43;;;12.40;99.90;;;;;;6081253;23;20010;-67
2023/01/05 08:42:47;;;;;;;0.45;0.15;;;12.50;99.90;;;;;;6079326;23;20010;-74
2023/01/05 08:45:14;;;;;;;0.50;0.30;;;12.50;99.90;;;;;;6081956;23;20010;-82
2023/01/05 08:47:40;;;;;;;0.25;0.22;;;12.60;99.90;;;;;;6080655;23;20041;-71
2023/01/05 08:50:08;;;;;;;1.65;0.30;;;12.70;99.90;;;;;;6082374;23;20459;-72
2023/01/05 08:52:34;;;;;;;0.90;0.10;;;12.70;99.90;;;;;;6080580;23;20007;-70
2023/01/05 08:55:00;;;;;;;0.10;0.10;;;12.70;99.90;;;;;;6080734;23;20077;-74
2023/01/05 08:57:25;;;;;;;0.57;0.43;;;12.70;99.90;;;;;;6079717;23;20014;-68
2023/01/05 08:59:51;;;;;;;1.00;0.43;;;12.70;99.90;;;;;;6072069;23;20015;-71
2023/01/05 09:02:17;;;;;;;0.35;0.35;;;12.70;99.90;;;;;;6073292;23;20340;-77
2023/01/05 09:04:43;;;;;;;0.35;0.25;;;12.70;99.90;;;;;;6075559;23;20053;-77
2023/01/05 09:07:09;;;;;;;3.67;1.83;;;12.70;99.90;;;;;;6079793;23;20011;-71
2023/01/05 09:09:34;;;;;;;0.15;0.15;;;12.50;99.90;;;;;;6074478;23;20490;-71
2023/01/05 09:12:00;;;;;;;0.22;0.22;;;12.40;99.90;;;;;;6075492;23;20015;-71
2023/01/05 09:14:26;;;;;;;0.73;0.40;;;12.30;99.90;;;;;;6073824;23;20078;-77
2023/01/05 09:16:51;;;;;;;0.30;0.30;;;12.20;99.90;;;;;;6078817;23;20033;-71
2023/01/05 09:19:17;;;;;;;0.30;0.30;;;12.10;99.90;;;;;;6073124;23;20030;-71
2023/01/05 09:21:43;;;;;;;0.35;0.30;;;12.10;99.90;;;;;;6078330;23;20061;-71
2023/01/05 09:24:13;;;;;;;0.40;0.40;;;12.00;99.90;;;;;;6077896;23;20440;-71
2023/01/05 09:26:40;;;;;;;0.30;0.30;;;12.00;99.90;;;;;;6075624;23;20018;-70
2023/01/05 09:29:06;;;;;;;4.00;1.10;;;11.90;99.90;;;;;;6079476;23;20007;-67
2023/01/05 09:31:31;;;;;;;1.38;0.50;;;11.80;99.90;;;;;;6074719;23;20082;-72
2023/01/05 09:33:57;;;;;;;4.13;0.40;;;11.70;99.90;;;;;;6079405;23;20049;-67
2023/01/05 09:36:24;;;;;;;0.90;0.82;;;11.70;99.90;;;;;;6079269;23;20133;-73
2023/01/05 09:38:57;;;;;;;0.95;0.70;;;11.60;99.90;;;;;;6082607;23;20077;-71
2023/01/05 09:41:30;;;;;;;1.13;1.00;;;11.50;99.90;;;;;;6081463;23;20392;-73
2023/01/05 09:43:59;;;;;;;1.13;0.75;;;11.40;99.90;;;;;;6081132;23;20029;-63
2023/01/05 09:46:38;;;;;;;1.00;0.80;;;11.30;99.90;;;;;;6081886;23;20331;-65
2023/01/05 09:49:09;;;;;;;1.52;0.80;;;11.20;99.90;;;;;;6080650;23;20041;-68
2023/01/05 09:51:35;;;;;;;2.53;1.00;;;11.00;99.90;;;;;;6079728;23;20033;-68
2023/01/05 09:54:01;;;;;;;1.17;1.00;;;10.90;99.90;;;;;;6080465;23;20002;-67
2023/01/05 09:56:35;;;;;;;1.67;0.80;;;10.80;99.90;;;;;;6076593;23;20802;-68
2023/01/05 09:59:10;;;;;;;0.70;0.70;;;10.80;99.90;;;;;;6081410;23;20096;-72
2023/01/05 10:01:38;;;;;;;0.82;0.80;;;10.70;99.90;;;;;;6079679;23;20014;-74
2023/01/05 10:04:11;;;;;;;2.45;0.70;;;10.70;99.90;;;;;;6080240;23;20013;-69
2023/01/05 10:06:42;;;;;;;0.60;0.47;;;10.70;99.90;;;;;;6078401;23;20014;-70
2023/01/05 10:09:14;;;;;;;1.33;0.90;;;10.60;99.90;;;;;;6078643;23;20009;-71
2023/01/05 10:14:40;;;;;;;0.80;0.70;;;10.60;99.90;;;;;;6077626;23;20017;-67
2023/01/05 10:17:14;;;;;;;0.75;0.60;;;10.50;99.90;;;;;;6079544;23;20005;-74
2023/01/05 10:19:40;;;;;;;0.75;0.40;;;10.60;99.90;;;;;;6077126;23;20002;-74
2023/01/05 10:22:41;;;;;;;1.23;0.55;;;10.60;99.90;;;;;;6078141;23;20025;-69
2023/01/05 10:25:30;;;;;;;0.30;0.30;;;10.60;99.90;;;;;;6065380;23;20049;-74
2023/01/05 10:28:11;;;;;;;2.85;0.47;;;10.60;99.90;;;;;;6079176;23;20759;-75
2023/01/05 10:30:51;;;;;;;1.25;0.47;;;10.60;99.90;;;;;;6077964;23;20014;-71
2023/01/05 10:33:35;;;;;;;1.98;0.95;;;10.70;99.90;;;;;;6077728;23;20013;-71
2023/01/05 10:36:33;;;;;;;0.70;0.45;;;10.60;99.90;;;;;;6082042;23;20018;-69
2023/01/05 10:39:17;;;;;;;1.02;0.35;;;10.60;99.90;;;;;;6068894;23;20013;-73
2023/01/05 10:42:04;;;;;;;0.40;0.40;;;10.70;99.90;;;;;;6072796;23;20014;-71
2023/01/05 10:44:45;;;;;;;0.85;0.50;;;10.60;99.90;;;;;;6077048;23;20597;-71
2023/01/05 10:47:12;;;;;;;1.87;0.47;;;10.60;99.90;;;;;;6073789;23;20034;-70
2023/01/05 10:49:41;;;;;;;4.10;0.50;;;10.50;99.90;;;;;;6081500;23;20006;-70
2023/01/05 10:52:33;;;;;;;1.30;0.43;;;10.50;99.90;;;;;;6085850;23;20448;-71
2023/01/05 10:55:00;;;;;;;0.73;0.30;;;10.50;99.90;;;;;;6077897;23;20017;-70
2023/01/05 10:57:32;;;;;;;1.38;0.20;;;10.50;99.90;;;;;;6082151;23;20010;-73
2023/01/05 11:00:09;;;;;;;0.70;0.55;;;10.50;99.90;;;;;;6083851;23;20030;-70
2023/01/05 11:03:01;;;;;;;1.13;0.20;;;10.40;99.90;;;;;;6076809;23;20029;-72
2023/01/05 11:05:40;;;;;;;0.60;0.30;;;10.40;99.90;;;;;;6066602;23;20073;-71
2023/01/05 11:08:24;;;;;;;0.75;0.30;;;10.40;99.90;;;;;;6080215;23;20026;-75
2023/01/05 11:10:57;;;;;;;0.35;0.20;;;10.30;99.90;;;;;;6076077;23;20013;-71
2023/01/05 11:13:28;;;;;;;0.47;0.25;;;10.30;99.90;;;;;;6076036;23;20006;-70
2023/01/05 11:16:05;;;;;;;0.68;0.40;;;10.30;99.90;;;;;;6080484;23;20095;-68
2023/01/05 11:18:43;;;;;;;0.65;0.30;;;10.40;99.90;;;;;;6076438;23;20418;-68
2023/01/05 11:21:13;;;;;;;0.68;0.30;;;10.40;99.90;;;;;;6075799;23;20015;-67
2023/01/05 11:23:47;;;;;;;1.63;0.35;;;10.50;99.90;;;;;;6077248;23;20239;-69
2023/01/05 11:26:21;;;;;;;0.38;0.20;;;10.50;99.90;;;;;;6074305;23;20022;-73
2023/01/05 11:29:08;;;;;;;0.82;0.40;;;10.50;99.90;;;;;;6078066;23;20022;-73
2023/01/05 11:31:52;;;;;;;1.55;0.50;;;10.50;99.90;;;;;;6080419;23;20460;-71
2023/01/05 11:34:23;;;;;;;1.85;0.20;;;10.60;99.90;;;;;;6079431;23;20010;-72
2023/01/05 11:37:05;;;;;;;1.30;0.40;;;10.60;99.90;;;;;;6078632;23;20078;-70
2023/01/05 11:39:58;;;;;;;2.15;0.50;;;10.60;99.90;;;;;;6077443;23;20268;-70
2023/01/05 11:42:24;;;;;;;0.73;0.40;;;10.70;99.90;;;;;;6083896;23;20029;-71
2023/01/05 11:44:58;;;;;;;1.67;0.40;;;10.70;99.90;;;;;;6076199;23;20007;-70
2023/01/05 11:47:35;;;;;;;2.22;0.60;;;10.70;99.90;;;;;;6077189;23;20014;-71
2023/01/05 11:50:12;;;;;;;2.25;0.70;;;10.70;99.90;;;;;;6081173;23;20077;-70
2023/01/05 11:52:38;;;;;;;0.75;0.55;;;10.70;99.90;;;;;;6080229;23;20008;-71
2023/01/05 11:55:19;;;;;;;1.58;0.30;;;10.70;99.90;;;;;;6076940;23;20011;-71
2023/01/05 11:57:46;;;;;;;1.17;0.50;;;10.70;99.90;;;;;;6079625;23;20006;-72
2023/01/05 12:00:40;;;;;;;2.15;0.60;;;10.70;99.90;;;;;;6078178;23;20614;-70
2023/01/05 12:03:34;;;;;;;2.35;0.60;;;10.70;99.90;;;;;;6080205;23;20056;-70
2023/01/05 12:06:25;;;;;;;1.38;0.50;;;10.70;99.90;;;;;;6079970;23;20437;-71
2023/01/05 12:09:35;;;;;;;1.33;0.57;;;10.60;99.90;;;;;;6080769;23;20392;-69
2023/01/05 12:12:24;;;;;;;3.88;0.80;;;10.50;99.90;;;;;;5967194;23;20011;-72
2023/01/05 12:15:15;;;;;;;2.50;0.77;;;10.40;99.90;;;;;;5947891;23;20752;-69
2023/01/05 12:17:54;;;;;;;3.65;0.93;;;10.40;99.90;;;;;;6057645;23;20006;-69
2023/01/05 12:20:29;;;;;;;2.60;0.80;;;10.40;99.90;;;;;;6078829;23;20010;-72
2023/01/05 12:23:03;;;;;;;2.78;0.60;;;10.40;99.90;;;;;;6077437;23;20141;-70
2023/01/05 12:25:41;;;;;;;0.88;0.55;;;10.40;99.90;;;;;;6077829;23;20371;-68
2023/01/05 12:28:35;;;;;;;1.88;0.40;;;10.40;99.90;;;;;;6079217;23;20089;-70
2023/01/05 12:31:39;;;;;;;2.17;0.60;;;10.40;99.90;;;;;;6077474;23;20094;-71
2023/01/05 12:34:25;;;;;;;1.30;0.70;;;10.30;99.90;;;;;;6043567;23;20017;-70
2023/01/05 12:37:14;;;;;;;0.55;0.50;;;10.30;99.90;;;;;;6076154;23;20025;-71
2023/01/05 12:39:58;;;;;;;3.63;0.40;;;10.30;99.90;;;;;;6035745;23;20203;-70
2023/01/05 12:42:46;;;;;;;1.15;0.60;;;10.30;99.90;;;;;;6079785;23;20010;-71
2023/01/05 12:45:51;;;;;;;1.42;0.70;;;10.30;99.90;;;;;;6074441;23;20036;-70
2023/01/05 12:48:52;;;;;;;1.10;0.90;;;10.40;99.90;;;;;;6076060;23;20079;-70
2023/01/05 12:51:25;;;;;;;1.10;0.70;;;10.50;99.90;;;;;;6061001;23;20010;-71
2023/01/05 12:53:55;;;;;;;2.15;0.73;;;10.60;99.90;;;;;;6078627;23;20010;-73
2023/01/05 12:56:37;;;;;;;1.70;0.60;;;10.60;99.90;;;;;;6077501;23;20006;-72
2023/01/05 12:59:09;;;;;;;2.08;0.90;;;10.60;99.90;;;;;;6078441;23;20017;-72
2023/01/05 13:01:41;;;;;;;1.40;0.90;;;10.60;99.90;;;;;;6074601;23;20018;-75
2023/01/05 13:04:35;;;;;;;0.73;0.70;;;10.70;99.90;;;;;;6075765;23;20017;-71
2023/01/05 13:07:06;;;;;;;2.42;0.65;;;10.60;99.90;;;;;;6075764;23;20017;-72
2023/01/05 13:09:34;;;;;;;3.10;0.68;;;10.60;99.90;;;;;;6077756;23;20077;-72
2023/01/05 13:12:03;;;;;;;1.48;0.63;;;10.50;99.90;;;;;;6078050;23;20488;-73
2023/01/05 13:14:36;;;;;;;1.75;0.90;;;10.50;99.90;;;;;;6076815;23;20006;-76
2023/01/05 13:17:26;;;;;;;2.65;1.10;;;10.50;99.90;;;;;;6073631;23;20007;-71
2023/01/05 13:20:04;;;;;;;1.77;0.70;;;10.40;99.90;;;;;;6074921;23;20175;-73
2023/01/05 13:22:34;;;;;;;1.25;0.90;;;10.40;99.90;;;;;;6081298;23;20021;-77
2023/01/05 13:25:28;;;;;;;2.50;1.10;;;10.30;99.90;;;;;;6078773;23;20002;-76
2023/01/05 13:27:54;;;;;;;1.05;0.85;;;10.30;99.90;;;;;;6074047;23;20468;-69
2023/01/05 13:30:33;;;;;;;2.15;0.80;;;10.30;99.90;;;;;;6075747;23;20006;-70
2023/01/05 13:33:29;;;;;;;3.70;1.00;;;10.40;99.90;;;;;;6069044;23;20017;-73
2023/01/05 13:36:24;;;;;;;1.98;0.80;;;10.30;99.90;;;;;;6077695;23;20006;-71
2023/01/05 13:39:19;;;;;;;2.42;1.00;;;10.30;99.90;;;;;;6081157;23;20427;-75
2023/01/05 13:42:19;;;;;;;3.92;0.95;;;10.30;99.90;;;;;;6079505;23;20019;-74
2023/01/05 13:44:53;;;;;;;1.63;1.50;;;10.40;99.90;;;;;;6076878;23;20309;-75